sensor_id;sensor_type;location;lat;lon;timestamp;temperature;humidity
29093;DHT22;16167;48.768;14.984;2023-12-20T00:01:27;7.30;1.00
29093;DHT22;16167;48.768;14.984;2023-12-20T00:03:55;7.30;1.00
29093;DHT22;16167;48.768;14.984;2023-12-20T00:06:24;7.30;1.00
29093;DHT22;16167;48.768;14.984;2023-12-20T00:08:52;7.30;1.00
29093;DHT22;16167;48.768;14.984;2023-12-20T00:11:21;7.30;1.00
29093;DHT22;16167;48.768;14.984;2023-12-20T00:13:50;7.30;1.00
29093;DHT22;16167;48.768;14.984;2023-12-20T00:16:19;7.40;1.00
29093;DHT22;16167;48.768;14.984;2023-12-20T00:18:47;7.40;1.00
29093;DHT22;16167;48.768;14.984;2023-12-20T00:21:16;7.40;1.00
29093;DHT22;16167;48.768;14.984;2023-12-20T00:23:45;7.40;1.00
29093;DHT22;16167;48.768;14.984;2023-12-20T00:26:13;7.40;1.00
29093;DHT22;16167;48.768;14.984;2023-12-20T00:28:41;7.30;1.00
29093;DHT22;16167;48.768;14.984;2023-12-20T00:31:11;7.30;1.00
29093;DHT22;16167;48.768;14.984;2023-12-20T00:33:40;7.20;1.00
29093;DHT22;16167;48.768;14.984;2023-12-20T00:36:11;7.10;1.00
29093;DHT22;16167;48.768;14.984;2023-12-20T00:38:39;7.10;1.00
29093;DHT22;16167;48.768;14.984;2023-12-20T00:41:07;7.10;1.00
29093;DHT22;16167;48.768;14.984;2023-12-20T00:43:35;7.00;1.00
29093;DHT22;16167;48.768;14.984;2023-12-20T00:46:04;6.90;1.00
29093;DHT22;16167;48.768;14.984;2023-12-20T00:48:34;7.00;1.00
29093;DHT22;16167;48.768;14.984;2023-12-20T00:51:02;7.00;1.00
29093;DHT22;16167;48.768;14.984;2023-12-20T00:53:31;7.00;1.00
29093;DHT22;16167;48.768;14.984;2023-12-20T00:55:59;6.90;1.00
29093;DHT22;16167;48.768;14.984;2023-12-20T00:58:27;6.90;1.00
29093;DHT22;16167;48.768;14.984;2023-12-20T01:00:56;6.90;1.00
29093;DHT22;16167;48.768;14.984;2023-12-20T01:03:25;6.90;1.00
29093;DHT22;16167;48.768;14.984;2023-12-20T01:05:55;6.90;1.00
29093;DHT22;16167;48.768;14.984;2023-12-20T01:08:23;6.90;1.00
29093;DHT22;16167;48.768;14.984;2023-12-20T01:10:52;6.90;1.00
29093;DHT22;16167;48.768;14.984;2023-12-20T01:13:20;6.90;1.00
29093;DHT22;16167;48.768;14.984;2023-12-20T01:15:48;6.80;1.00
29093;DHT22;16167;48.768;14.984;2023-12-20T01:18:17;6.80;1.00
29093;DHT22;16167;48.768;14.984;2023-12-20T01:20:45;6.80;1.00
29093;DHT22;16167;48.768;14.984;2023-12-20T01:23:15;6.70;1.00
29093;DHT22;16167;48.768;14.984;2023-12-20T01:25:43;6.70;1.00
29093;DHT22;16167;48.768;14.984;2023-12-20T01:28:13;6.80;1.00
29093;DHT22;16167;48.768;14.984;2023-12-20T01:30:41;6.80;1.00
29093;DHT22;16167;48.768;14.984;2023-12-20T01:33:10;6.80;1.00
29093;DHT22;16167;48.768;14.984;2023-12-20T01:35:38;6.80;1.00
29093;DHT22;16167;48.768;14.984;2023-12-20T01:38:07;6.70;1.00
29093;DHT22;16167;48.768;14.984;2023-12-20T01:40:36;6.70;1.00
29093;DHT22;16167;48.768;14.984;2023-12-20T01:43:08;6.70;1.00
29093;DHT22;16167;48.768;14.984;2023-12-20T01:45:36;6.70;1.00
29093;DHT22;16167;48.768;14.984;2023-12-20T01:48:06;6.60;1.00
29093;DHT22;16167;48.768;14.984;2023-12-20T01:50:36;6.60;1.00
29093;DHT22;16167;48.768;14.984;2023-12-20T01:53:05;6.60;1.00
29093;DHT22;16167;48.768;14.984;2023-12-20T01:55:39;6.70;1.00
29093;DHT22;16167;48.768;14.984;2023-12-20T01:58:08;6.70;1.00
29093;DHT22;16167;48.768;14.984;2023-12-20T02:00:38;6.70;1.00
29093;DHT22;16167;48.768;14.984;2023-12-20T02:03:07;6.80;1.00
29093;DHT22;16167;48.768;14.984;2023-12-20T02:05:36;6.80;1.00
29093;DHT22;16167;48.768;14.984;2023-12-20T02:08:06;6.80;1.00
29093;DHT22;16167;48.768;14.984;2023-12-20T02:10:38;6.80;1.00
29093;DHT22;16167;48.768;14.984;2023-12-20T02:13:08;6.70;1.00
29093;DHT22;16167;48.768;14.984;2023-12-20T02:15:37;6.70;1.00
29093;DHT22;16167;48.768;14.984;2023-12-20T02:18:06;6.60;1.00
29093;DHT22;16167;48.768;14.984;2023-12-20T02:20:34;6.60;1.00
29093;DHT22;16167;48.768;14.984;2023-12-20T02:23:04;6.50;1.00
29093;DHT22;16167;48.768;14.984;2023-12-20T02:25:33;6.60;1.00
29093;DHT22;16167;48.768;14.984;2023-12-20T02:28:01;6.60;1.00
29093;DHT22;16167;48.768;14.984;2023-12-20T02:30:30;6.50;1.00
29093;DHT22;16167;48.768;14.984;2023-12-20T02:33:00;6.60;1.00
29093;DHT22;16167;48.768;14.984;2023-12-20T02:35:29;6.60;1.00
29093;DHT22;16167;48.768;14.984;2023-12-20T02:37:57;6.70;1.00
29093;DHT22;16167;48.768;14.984;2023-12-20T02:40:27;6.70;1.00
29093;DHT22;16167;48.768;14.984;2023-12-20T02:42:55;6.70;1.00
29093;DHT22;16167;48.768;14.984;2023-12-20T02:45:24;6.70;99.90
29093;DHT22;16167;48.768;14.984;2023-12-20T02:47:52;6.80;99.90
29093;DHT22;16167;48.768;14.984;2023-12-20T02:50:21;6.80;1.00
29093;DHT22;16167;48.768;14.984;2023-12-20T02:52:49;6.90;1.00
29093;DHT22;16167;48.768;14.984;2023-12-20T02:55:18;6.90;1.00
29093;DHT22;16167;48.768;14.984;2023-12-20T02:57:48;6.90;99.90
29093;DHT22;16167;48.768;14.984;2023-12-20T03:00:17;6.90;99.90
29093;DHT22;16167;48.768;14.984;2023-12-20T03:02:46;6.80;99.90
29093;DHT22;16167;48.768;14.984;2023-12-20T03:05:14;6.70;99.90
29093;DHT22;16167;48.768;14.984;2023-12-20T03:07:43;6.70;99.90
29093;DHT22;16167;48.768;14.984;2023-12-20T03:10:11;6.70;99.90
29093;DHT22;16167;48.768;14.984;2023-12-20T03:12:51;6.70;99.90
29093;DHT22;16167;48.768;14.984;2023-12-20T03:15:19;6.70;99.90
29093;DHT22;16167;48.768;14.984;2023-12-20T03:17:47;6.70;99.90
29093;DHT22;16167;48.768;14.984;2023-12-20T03:20:17;6.60;99.90
29093;DHT22;16167;48.768;14.984;2023-12-20T03:22:45;6.50;99.90
29093;DHT22;16167;48.768;14.984;2023-12-20T03:25:14;6.50;99.90
29093;DHT22;16167;48.768;14.984;2023-12-20T03:27:42;6.50;99.90
29093;DHT22;16167;48.768;14.984;2023-12-20T03:30:12;6.50;99.90
29093;DHT22;16167;48.768;14.984;2023-12-20T03:32:41;6.40;99.90
29093;DHT22;16167;48.768;14.984;2023-12-20T03:35:10;6.30;99.90
29093;DHT22;16167;48.768;14.984;2023-12-20T03:37:38;6.30;99.90
29093;DHT22;16167;48.768;14.984;2023-12-20T03:40:07;6.30;99.90
29093;DHT22;16167;48.768;14.984;2023-12-20T03:42:36;6.30;1.00
29093;DHT22;16167;48.768;14.984;2023-12-20T03:45:05;6.20;1.00
29093;DHT22;16167;48.768;14.984;2023-12-20T03:47:35;6.20;1.00
29093;DHT22;16167;48.768;14.984;2023-12-20T03:50:04;6.20;1.00
29093;DHT22;16167;48.768;14.984;2023-12-20T03:52:33;6.10;33.30
29093;DHT22;16167;48.768;14.984;2023-12-20T03:55:01;6.10;86.70
29093;DHT22;16167;48.768;14.984;2023-12-20T03:57:30;6.10;10.90
29093;DHT22;16167;48.768;14.984;2023-12-20T03:59:58;6.10;46.50
29093;DHT22;16167;48.768;14.984;2023-12-20T04:02:26;6.00;99.90
29093;DHT22;16167;48.768;14.984;2023-12-20T04:04:56;6.00;99.90
29093;DHT22;16167;48.768;14.984;2023-12-20T04:07:25;5.90;99.90
29093;DHT22;16167;48.768;14.984;2023-12-20T04:09:53;5.90;1.00
29093;DHT22;16167;48.768;14.984;2023-12-20T04:12:22;6.00;1.00
29093;DHT22;16167;48.768;14.984;2023-12-20T04:14:51;6.00;1.00
29093;DHT22;16167;48.768;14.984;2023-12-20T04:17:20;6.00;1.00
29093;DHT22;16167;48.768;14.984;2023-12-20T04:19:49;6.00;1.00
29093;DHT22;16167;48.768;14.984;2023-12-20T04:22:19;6.00;1.00
29093;DHT22;16167;48.768;14.984;2023-12-20T04:24:48;5.90;1.00
29093;DHT22;16167;48.768;14.984;2023-12-20T04:27:18;5.90;1.00
29093;DHT22;16167;48.768;14.984;2023-12-20T04:29:47;5.90;1.00
29093;DHT22;16167;48.768;14.984;2023-12-20T04:32:15;5.90;1.00
29093;DHT22;16167;48.768;14.984;2023-12-20T04:34:45;5.90;1.00
29093;DHT22;16167;48.768;14.984;2023-12-20T04:37:13;5.90;1.00
29093;DHT22;16167;48.768;14.984;2023-12-20T04:39:43;5.90;1.00
29093;DHT22;16167;48.768;14.984;2023-12-20T04:42:12;5.80;1.00
29093;DHT22;16167;48.768;14.984;2023-12-20T04:44:40;5.80;1.00
29093;DHT22;16167;48.768;14.984;2023-12-20T04:47:10;5.80;1.00
29093;DHT22;16167;48.768;14.984;2023-12-20T04:49:39;5.70;1.00
29093;DHT22;16167;48.768;14.984;2023-12-20T04:52:07;5.70;1.00
29093;DHT22;16167;48.768;14.984;2023-12-20T04:54:35;5.70;1.00
29093;DHT22;16167;48.768;14.984;2023-12-20T04:57:07;5.70;1.00
29093;DHT22;16167;48.768;14.984;2023-12-20T04:59:35;5.70;1.00
29093;DHT22;16167;48.768;14.984;2023-12-20T05:02:04;5.70;1.00
29093;DHT22;16167;48.768;14.984;2023-12-20T05:04:35;5.70;1.00
29093;DHT22;16167;48.768;14.984;2023-12-20T05:07:36;5.70;1.00
29093;DHT22;16167;48.768;14.984;2023-12-20T05:10:14;5.60;1.00
29093;DHT22;16167;48.768;14.984;2023-12-20T05:12:44;5.60;1.00
29093;DHT22;16167;48.768;14.984;2023-12-20T05:15:14;5.50;1.00
29093;DHT22;16167;48.768;14.984;2023-12-20T05:17:43;5.50;1.00
29093;DHT22;16167;48.768;14.984;2023-12-20T05:20:12;5.50;1.00
29093;DHT22;16167;48.768;14.984;2023-12-20T05:22:41;5.50;1.00
29093;DHT22;16167;48.768;14.984;2023-12-20T05:25:09;5.50;1.00
29093;DHT22;16167;48.768;14.984;2023-12-20T05:27:38;5.50;1.00
29093;DHT22;16167;48.768;14.984;2023-12-20T05:30:09;5.40;1.00
29093;DHT22;16167;48.768;14.984;2023-12-20T05:32:38;5.50;1.00
29093;DHT22;16167;48.768;14.984;2023-12-20T05:35:07;5.40;1.00
29093;DHT22;16167;48.768;14.984;2023-12-20T05:37:36;5.50;1.00
29093;DHT22;16167;48.768;14.984;2023-12-20T05:40:20;5.40;1.00
29093;DHT22;16167;48.768;14.984;2023-12-20T05:42:49;5.40;1.00
29093;DHT22;16167;48.768;14.984;2023-12-20T05:45:23;5.40;1.00
29093;DHT22;16167;48.768;14.984;2023-12-20T05:48:01;5.40;1.00
29093;DHT22;16167;48.768;14.984;2023-12-20T05:50:32;5.40;1.00
29093;DHT22;16167;48.768;14.984;2023-12-20T05:53:01;5.40;1.00
29093;DHT22;16167;48.768;14.984;2023-12-20T05:55:30;5.50;9.30
29093;DHT22;16167;48.768;14.984;2023-12-20T05:57:58;5.50;38.40
29093;DHT22;16167;48.768;14.984;2023-12-20T06:00:29;5.50;64.40
29093;DHT22;16167;48.768;14.984;2023-12-20T06:02:58;5.50;73.10
29093;DHT22;16167;48.768;14.984;2023-12-20T06:05:28;5.50;78.00
29093;DHT22;16167;48.768;14.984;2023-12-20T06:07:57;5.50;79.60
29093;DHT22;16167;48.768;14.984;2023-12-20T06:10:28;5.50;89.90
29093;DHT22;16167;48.768;14.984;2023-12-20T06:12:58;5.50;90.10
29093;DHT22;16167;48.768;14.984;2023-12-20T06:15:33;5.60;90.90
29093;DHT22;16167;48.768;14.984;2023-12-20T06:18:05;5.50;89.70
29093;DHT22;16167;48.768;14.984;2023-12-20T06:20:33;5.50;90.00
29093;DHT22;16167;48.768;14.984;2023-12-20T06:23:05;5.50;89.00
29093;DHT22;16167;48.768;14.984;2023-12-20T06:25:33;5.60;88.30
29093;DHT22;16167;48.768;14.984;2023-12-20T06:28:07;5.60;88.00
29093;DHT22;16167;48.768;14.984;2023-12-20T06:30:38;5.50;89.10
29093;DHT22;16167;48.768;14.984;2023-12-20T06:33:08;5.60;88.40
29093;DHT22;16167;48.768;14.984;2023-12-20T06:35:37;5.50;85.90
29093;DHT22;16167;48.768;14.984;2023-12-20T06:38:05;5.50;85.20
29093;DHT22;16167;48.768;14.984;2023-12-20T06:40:34;5.40;84.30
29093;DHT22;16167;48.768;14.984;2023-12-20T06:43:06;5.40;82.40
29093;DHT22;16167;48.768;14.984;2023-12-20T06:45:48;5.40;81.40
29093;DHT22;16167;48.768;14.984;2023-12-20T06:48:17;5.40;80.10
29093;DHT22;16167;48.768;14.984;2023-12-20T06:50:46;5.40;79.40
29093;DHT22;16167;48.768;14.984;2023-12-20T06:53:15;5.40;79.80
29093;DHT22;16167;48.768;14.984;2023-12-20T06:55:46;5.40;78.30
29093;DHT22;16167;48.768;14.984;2023-12-20T06:58:15;5.40;75.20
29093;DHT22;16167;48.768;14.984;2023-12-20T07:00:44;5.30;76.90
29093;DHT22;16167;48.768;14.984;2023-12-20T07:03:14;5.30;55.20
29093;DHT22;16167;48.768;14.984;2023-12-20T07:05:42;5.30;31.50
29093;DHT22;16167;48.768;14.984;2023-12-20T07:08:10;5.30;1.00
29093;DHT22;16167;48.768;14.984;2023-12-20T07:10:41;5.30;1.00
29093;DHT22;16167;48.768;14.984;2023-12-20T07:13:09;5.20;1.00
29093;DHT22;16167;48.768;14.984;2023-12-20T07:15:40;5.20;1.00
29093;DHT22;16167;48.768;14.984;2023-12-20T07:18:10;5.10;1.00
29093;DHT22;16167;48.768;14.984;2023-12-20T07:20:40;5.00;1.00
29093;DHT22;16167;48.768;14.984;2023-12-20T07:23:10;5.00;1.00
29093;DHT22;16167;48.768;14.984;2023-12-20T07:25:38;5.00;1.00
29093;DHT22;16167;48.768;14.984;2023-12-20T07:28:06;4.90;1.00
29093;DHT22;16167;48.768;14.984;2023-12-20T07:30:35;4.90;1.00
29093;DHT22;16167;48.768;14.984;2023-12-20T07:33:04;4.90;1.00
29093;DHT22;16167;48.768;14.984;2023-12-20T07:35:35;4.70;1.00
29093;DHT22;16167;48.768;14.984;2023-12-20T07:38:05;4.70;1.00
29093;DHT22;16167;48.768;14.984;2023-12-20T07:40:33;4.70;1.00
29093;DHT22;16167;48.768;14.984;2023-12-20T07:43:02;4.70;1.00
29093;DHT22;16167;48.768;14.984;2023-12-20T07:45:30;4.60;1.00
29093;DHT22;16167;48.768;14.984;2023-12-20T07:47:59;4.60;3.90
29093;DHT22;16167;48.768;14.984;2023-12-20T07:50:27;4.60;2.60
29093;DHT22;16167;48.768;14.984;2023-12-20T07:52:56;4.60;4.80
29093;DHT22;16167;48.768;14.984;2023-12-20T07:55:28;4.50;7.30
29093;DHT22;16167;48.768;14.984;2023-12-20T07:57:57;4.50;8.60
29093;DHT22;16167;48.768;14.984;2023-12-20T08:00:26;4.30;12.10
29093;DHT22;16167;48.768;14.984;2023-12-20T08:02:54;4.30;19.30
29093;DHT22;16167;48.768;14.984;2023-12-20T08:05:23;4.30;17.30
29093;DHT22;16167;48.768;14.984;2023-12-20T08:07:52;4.20;20.10
29093;DHT22;16167;48.768;14.984;2023-12-20T08:10:21;4.10;19.60
29093;DHT22;16167;48.768;14.984;2023-12-20T08:12:51;4.10;22.10
29093;DHT22;16167;48.768;14.984;2023-12-20T08:15:18;4.00;23.90
29093;DHT22;16167;48.768;14.984;2023-12-20T08:17:46;4.00;25.30
29093;DHT22;16167;48.768;14.984;2023-12-20T08:20:15;4.00;34.80
29093;DHT22;16167;48.768;14.984;2023-12-20T08:22:55;4.00;29.70
29093;DHT22;16167;48.768;14.984;2023-12-20T08:25:24;3.90;31.00
29093;DHT22;16167;48.768;14.984;2023-12-20T08:27:54;3.90;28.50
29093;DHT22;16167;48.768;14.984;2023-12-20T08:30:25;3.90;25.10
29093;DHT22;16167;48.768;14.984;2023-12-20T08:32:55;4.00;23.00
29093;DHT22;16167;48.768;14.984;2023-12-20T08:35:26;4.00;40.20
29093;DHT22;16167;48.768;14.984;2023-12-20T08:37:55;4.00;21.80
29093;DHT22;16167;48.768;14.984;2023-12-20T08:40:23;4.00;24.00
29093;DHT22;16167;48.768;14.984;2023-12-20T08:42:52;4.00;20.20
29093;DHT22;16167;48.768;14.984;2023-12-20T08:45:22;4.00;20.30
29093;DHT22;16167;48.768;14.984;2023-12-20T08:47:51;4.00;22.80
29093;DHT22;16167;48.768;14.984;2023-12-20T08:50:20;4.00;19.90
29093;DHT22;16167;48.768;14.984;2023-12-20T08:52:48;4.10;29.00
29093;DHT22;16167;48.768;14.984;2023-12-20T08:55:17;4.20;23.50
29093;DHT22;16167;48.768;14.984;2023-12-20T08:57:46;4.10;12.00
29093;DHT22;16167;48.768;14.984;2023-12-20T09:00:15;4.20;9.80
29093;DHT22;16167;48.768;14.984;2023-12-20T09:02:46;4.20;15.90
29093;DHT22;16167;48.768;14.984;2023-12-20T09:05:16;4.20;17.80
29093;DHT22;16167;48.768;14.984;2023-12-20T09:07:48;4.30;24.90
29093;DHT22;16167;48.768;14.984;2023-12-20T09:10:17;4.20;30.00
29093;DHT22;16167;48.768;14.984;2023-12-20T09:12:50;4.40;17.80
29093;DHT22;16167;48.768;14.984;2023-12-20T09:15:21;4.30;18.40
29093;DHT22;16167;48.768;14.984;2023-12-20T09:17:57;4.40;20.60
29093;DHT22;16167;48.768;14.984;2023-12-20T09:20:26;4.40;19.80
29093;DHT22;16167;48.768;14.984;2023-12-20T09:22:55;4.40;15.00
29093;DHT22;16167;48.768;14.984;2023-12-20T09:25:23;4.40;22.40
29093;DHT22;16167;48.768;14.984;2023-12-20T09:27:53;4.40;23.70
29093;DHT22;16167;48.768;14.984;2023-12-20T09:30:22;4.40;30.50
29093;DHT22;16167;48.768;14.984;2023-12-20T09:32:55;4.50;33.40
29093;DHT22;16167;48.768;14.984;2023-12-20T09:35:23;4.50;51.10
29093;DHT22;16167;48.768;14.984;2023-12-20T09:37:52;4.50;52.20
29093;DHT22;16167;48.768;14.984;2023-12-20T09:40:22;4.60;43.30
29093;DHT22;16167;48.768;14.984;2023-12-20T09:42:57;4.60;62.40
29093;DHT22;16167;48.768;14.984;2023-12-20T09:45:25;4.70;58.50
29093;DHT22;16167;48.768;14.984;2023-12-20T09:47:57;4.80;58.40
29093;DHT22;16167;48.768;14.984;2023-12-20T09:50:26;4.70;64.70
29093;DHT22;16167;48.768;14.984;2023-12-20T09:52:58;4.70;69.10
29093;DHT22;16167;48.768;14.984;2023-12-20T09:55:28;4.70;66.80
29093;DHT22;16167;48.768;14.984;2023-12-20T09:57:59;4.70;66.80
29093;DHT22;16167;48.768;14.984;2023-12-20T10:00:31;4.70;79.00
29093;DHT22;16167;48.768;14.984;2023-12-20T10:03:01;4.80;80.60
29093;DHT22;16167;48.768;14.984;2023-12-20T10:05:32;4.80;86.50
29093;DHT22;16167;48.768;14.984;2023-12-20T10:08:05;4.90;90.90
29093;DHT22;16167;48.768;14.984;2023-12-20T10:10:37;4.90;92.50
29093;DHT22;16167;48.768;14.984;2023-12-20T10:13:15;5.00;91.40
29093;DHT22;16167;48.768;14.984;2023-12-20T10:15:44;5.20;91.10
29093;DHT22;16167;48.768;14.984;2023-12-20T10:18:16;5.20;99.90
29093;DHT22;16167;48.768;14.984;2023-12-20T10:20:45;5.30;99.90
29093;DHT22;16167;48.768;14.984;2023-12-20T10:23:15;5.40;99.90
29093;DHT22;16167;48.768;14.984;2023-12-20T10:25:56;5.60;99.90
29093;DHT22;16167;48.768;14.984;2023-12-20T10:28:25;5.80;99.90
29093;DHT22;16167;48.768;14.984;2023-12-20T10:30:57;5.90;99.90
29093;DHT22;16167;48.768;14.984;2023-12-20T10:33:30;6.00;99.90
29093;DHT22;16167;48.768;14.984;2023-12-20T10:36:00;6.10;99.90
29093;DHT22;16167;48.768;14.984;2023-12-20T10:38:30;6.30;99.90
29093;DHT22;16167;48.768;14.984;2023-12-20T10:40:59;6.50;99.90
29093;DHT22;16167;48.768;14.984;2023-12-20T10:43:30;6.30;99.90
29093;DHT22;16167;48.768;14.984;2023-12-20T10:46:00;6.30;99.90
29093;DHT22;16167;48.768;14.984;2023-12-20T10:48:36;6.30;99.90
29093;DHT22;16167;48.768;14.984;2023-12-20T10:51:06;6.30;99.90
29093;DHT22;16167;48.768;14.984;2023-12-20T10:53:36;6.40;99.90
29093;DHT22;16167;48.768;14.984;2023-12-20T10:56:08;6.30;99.90
29093;DHT22;16167;48.768;14.984;2023-12-20T10:58:42;6.20;99.90
29093;DHT22;16167;48.768;14.984;2023-12-20T11:01:16;6.10;99.90
29093;DHT22;16167;48.768;14.984;2023-12-20T11:03:51;6.10;99.90
29093;DHT22;16167;48.768;14.984;2023-12-20T11:06:27;6.00;99.90
29093;DHT22;16167;48.768;14.984;2023-12-20T11:09:04;5.90;99.90
29093;DHT22;16167;48.768;14.984;2023-12-20T11:11:49;5.90;99.90
29093;DHT22;16167;48.768;14.984;2023-12-20T11:14:29;6.00;99.90
29093;DHT22;16167;48.768;14.984;2023-12-20T11:17:12;6.00;99.90
29093;DHT22;16167;48.768;14.984;2023-12-20T11:20:10;6.10;99.90
29093;DHT22;16167;48.768;14.984;2023-12-20T11:22:52;6.20;99.90
29093;DHT22;16167;48.768;14.984;2023-12-20T11:25:23;6.10;99.90
29093;DHT22;16167;48.768;14.984;2023-12-20T11:28:09;6.10;99.90
29093;DHT22;16167;48.768;14.984;2023-12-20T11:30:45;6.00;99.90
29093;DHT22;16167;48.768;14.984;2023-12-20T11:33:15;6.00;99.90
29093;DHT22;16167;48.768;14.984;2023-12-20T11:35:47;6.40;99.90
29093;DHT22;16167;48.768;14.984;2023-12-20T11:38:16;6.60;99.90
29093;DHT22;16167;48.768;14.984;2023-12-20T11:40:47;6.40;99.90
29093;DHT22;16167;48.768;14.984;2023-12-20T11:43:30;6.30;99.90
29093;DHT22;16167;48.768;14.984;2023-12-20T11:46:03;6.10;99.90
29093;DHT22;16167;48.768;14.984;2023-12-20T11:48:38;6.10;99.90
29093;DHT22;16167;48.768;14.984;2023-12-20T11:51:12;6.00;99.90
29093;DHT22;16167;48.768;14.984;2023-12-20T11:53:43;5.90;99.90
29093;DHT22;16167;48.768;14.984;2023-12-20T11:56:16;5.80;99.90
29093;DHT22;16167;48.768;14.984;2023-12-20T11:58:49;5.80;99.90
29093;DHT22;16167;48.768;14.984;2023-12-20T12:01:28;5.80;99.90
29093;DHT22;16167;48.768;14.984;2023-12-20T12:04:08;5.90;99.90
29093;DHT22;16167;48.768;14.984;2023-12-20T12:06:48;5.90;99.90
29093;DHT22;16167;48.768;14.984;2023-12-20T12:09:22;5.90;99.90
29093;DHT22;16167;48.768;14.984;2023-12-20T12:12:00;6.00;99.90
29093;DHT22;16167;48.768;14.984;2023-12-20T12:14:29;6.00;99.90
29093;DHT22;16167;48.768;14.984;2023-12-20T12:17:04;6.10;99.90
29093;DHT22;16167;48.768;14.984;2023-12-20T12:19:36;6.40;99.90
29093;DHT22;16167;48.768;14.984;2023-12-20T12:22:15;7.60;99.90
29093;DHT22;16167;48.768;14.984;2023-12-20T12:25:08;8.50;99.00
29093;DHT22;16167;48.768;14.984;2023-12-20T12:27:40;9.20;95.50
29093;DHT22;16167;48.768;14.984;2023-12-20T12:30:16;9.00;95.20
29093;DHT22;16167;48.768;14.984;2023-12-20T12:32:48;8.40;96.10
29093;DHT22;16167;48.768;14.984;2023-12-20T12:35:20;8.00;97.40
29093;DHT22;16167;48.768;14.984;2023-12-20T12:37:51;7.60;97.70
29093;DHT22;16167;48.768;14.984;2023-12-20T12:40:20;7.20;98.60
29093;DHT22;16167;48.768;14.984;2023-12-20T12:42:50;7.00;99.70
29093;DHT22;16167;48.768;14.984;2023-12-20T12:45:19;6.80;99.90
29093;DHT22;16167;48.768;14.984;2023-12-20T12:47:57;6.70;99.90
29093;DHT22;16167;48.768;14.984;2023-12-20T12:50:37;6.60;99.90
29093;DHT22;16167;48.768;14.984;2023-12-20T12:53:19;6.50;99.90
29093;DHT22;16167;48.768;14.984;2023-12-20T12:55:54;6.30;99.90
29093;DHT22;16167;48.768;14.984;2023-12-20T12:58:38;6.30;99.90
29093;DHT22;16167;48.768;14.984;2023-12-20T13:01:14;6.10;99.90
29093;DHT22;16167;48.768;14.984;2023-12-20T13:04:09;6.10;99.90
29093;DHT22;16167;48.768;14.984;2023-12-20T13:06:41;6.20;99.90
29093;DHT22;16167;48.768;14.984;2023-12-20T13:09:12;6.30;99.90
29093;DHT22;16167;48.768;14.984;2023-12-20T13:11:40;6.30;99.90
29093;DHT22;16167;48.768;14.984;2023-12-20T13:14:17;6.30;99.90
29093;DHT22;16167;48.768;14.984;2023-12-20T13:17:30;6.30;99.90
29093;DHT22;16167;48.768;14.984;2023-12-20T13:19:59;6.30;99.90
29093;DHT22;16167;48.768;14.984;2023-12-20T13:22:32;6.30;99.90
29093;DHT22;16167;48.768;14.984;2023-12-20T13:28:17;6.40;99.90
29093;DHT22;16167;48.768;14.984;2023-12-20T13:30:49;6.30;99.90
29093;DHT22;16167;48.768;14.984;2023-12-20T13:33:19;6.90;99.90
29093;DHT22;16167;48.768;14.984;2023-12-20T13:35:53;7.60;99.90
29093;DHT22;16167;48.768;14.984;2023-12-20T13:38:32;8.30;97.60
29093;DHT22;16167;48.768;14.984;2023-12-20T13:41:05;8.70;96.50
29093;DHT22;16167;48.768;14.984;2023-12-20T13:43:38;7.80;96.80
29093;DHT22;16167;48.768;14.984;2023-12-20T13:46:07;7.30;98.20
29093;DHT22;16167;48.768;14.984;2023-12-20T13:48:36;6.80;99.40
29093;DHT22;16167;48.768;14.984;2023-12-20T13:51:06;6.60;99.90
29093;DHT22;16167;48.768;14.984;2023-12-20T13:53:40;6.40;99.90
29093;DHT22;16167;48.768;14.984;2023-12-20T13:56:12;6.20;99.90
29093;DHT22;16167;48.768;14.984;2023-12-20T13:58:52;6.00;99.90
29093;DHT22;16167;48.768;14.984;2023-12-20T14:01:22;5.90;99.90
29093;DHT22;16167;48.768;14.984;2023-12-20T14:03:51;5.70;99.90
29093;DHT22;16167;48.768;14.984;2023-12-20T14:06:23;5.60;99.90
29093;DHT22;16167;48.768;14.984;2023-12-20T14:08:52;5.50;99.90
29093;DHT22;16167;48.768;14.984;2023-12-20T14:11:20;5.40;99.90
29093;DHT22;16167;48.768;14.984;2023-12-20T14:13:52;5.50;99.90
29093;DHT22;16167;48.768;14.984;2023-12-20T14:16:32;5.50;99.90
29093;DHT22;16167;48.768;14.984;2023-12-20T14:19:04;5.40;99.90
29093;DHT22;16167;48.768;14.984;2023-12-20T14:21:35;5.40;99.90
29093;DHT22;16167;48.768;14.984;2023-12-20T14:24:05;5.30;99.90
29093;DHT22;16167;48.768;14.984;2023-12-20T14:26:40;5.20;99.90
29093;DHT22;16167;48.768;14.984;2023-12-20T14:29:18;5.20;99.90
29093;DHT22;16167;48.768;14.984;2023-12-20T14:32:08;5.10;99.90
29093;DHT22;16167;48.768;14.984;2023-12-20T14:34:45;5.00;99.90
29093;DHT22;16167;48.768;14.984;2023-12-20T14:37:16;5.00;99.90
29093;DHT22;16167;48.768;14.984;2023-12-20T14:39:49;4.90;99.90
29093;DHT22;16167;48.768;14.984;2023-12-20T14:42:18;4.90;99.90
29093;DHT22;16167;48.768;14.984;2023-12-20T14:45:05;4.90;99.90
29093;DHT22;16167;48.768;14.984;2023-12-20T14:47:44;4.90;99.90
29093;DHT22;16167;48.768;14.984;2023-12-20T14:50:27;4.80;99.90
29093;DHT22;16167;48.768;14.984;2023-12-20T14:52:57;4.80;99.40
29093;DHT22;16167;48.768;14.984;2023-12-20T14:55:34;4.80;98.70
29093;DHT22;16167;48.768;14.984;2023-12-20T14:58:08;4.70;97.80
29093;DHT22;16167;48.768;14.984;2023-12-20T15:00:39;4.70;97.80
29093;DHT22;16167;48.768;14.984;2023-12-20T15:03:11;4.70;97.90
29093;DHT22;16167;48.768;14.984;2023-12-20T15:05:44;4.70;98.00
29093;DHT22;16167;48.768;14.984;2023-12-20T15:08:15;4.70;97.60
29093;DHT22;16167;48.768;14.984;2023-12-20T15:10:46;4.70;97.70
29093;DHT22;16167;48.768;14.984;2023-12-20T15:13:14;4.60;97.80
29093;DHT22;16167;48.768;14.984;2023-12-20T15:15:48;4.60;98.00
29093;DHT22;16167;48.768;14.984;2023-12-20T15:18:20;4.60;97.80
29093;DHT22;16167;48.768;14.984;2023-12-20T15:20:49;4.60;98.10
29093;DHT22;16167;48.768;14.984;2023-12-20T15:23:21;4.60;98.20
29093;DHT22;16167;48.768;14.984;2023-12-20T15:25:53;4.60;98.10
29093;DHT22;16167;48.768;14.984;2023-12-20T15:28:22;4.60;97.90
29093;DHT22;16167;48.768;14.984;2023-12-20T15:31:04;4.60;98.20
29093;DHT22;16167;48.768;14.984;2023-12-20T15:33:36;4.50;98.20
29093;DHT22;16167;48.768;14.984;2023-12-20T15:36:14;4.40;98.20
29093;DHT22;16167;48.768;14.984;2023-12-20T15:38:43;4.50;98.40
29093;DHT22;16167;48.768;14.984;2023-12-20T15:41:17;4.40;98.60
29093;DHT22;16167;48.768;14.984;2023-12-20T15:43:46;4.40;98.90
29093;DHT22;16167;48.768;14.984;2023-12-20T15:46:17;4.40;98.70
29093;DHT22;16167;48.768;14.984;2023-12-20T15:48:45;4.40;98.90
29093;DHT22;16167;48.768;14.984;2023-12-20T15:51:19;4.40;98.70
29093;DHT22;16167;48.768;14.984;2023-12-20T15:53:49;4.40;99.00
29093;DHT22;16167;48.768;14.984;2023-12-20T15:56:18;4.30;99.00
29093;DHT22;16167;48.768;14.984;2023-12-20T15:58:46;4.20;99.00
29093;DHT22;16167;48.768;14.984;2023-12-20T16:01:21;4.20;99.10
29093;DHT22;16167;48.768;14.984;2023-12-20T16:03:50;4.20;99.00
29093;DHT22;16167;48.768;14.984;2023-12-20T16:06:25;4.10;98.90